createdAt,value
2023-04-25T00:01:50.177Z,101196.22
2023-04-25T00:04:16.966Z,101198.09
2023-04-25T00:06:43.738Z,101197.25
2023-04-25T00:09:11.935Z,101199.13
2023-04-25T00:11:38.886Z,101193.13
2023-04-25T00:14:06.006Z,101193.28
2023-04-25T00:16:34.989Z,101198.63
2023-04-25T00:19:03.999Z,101197.03
2023-04-25T00:21:32.610Z,101198.00
2023-04-25T00:23:59.082Z,101196.38
2023-04-25T00:26:26.078Z,101203.47
2023-04-25T00:28:55.759Z,101198.25
2023-04-25T00:31:23.334Z,101204.47
2023-04-25T00:33:50.022Z,101200.19
2023-04-25T00:36:16.838Z,101195.03
2023-04-25T00:38:43.366Z,101206.47
2023-04-25T00:41:09.911Z,101201.22
2023-04-25T00:43:37.822Z,101215.97
2023-04-25T00:46:04.666Z,101213.19
2023-04-25T00:48:31.160Z,101216.56
2023-04-25T00:51:01.021Z,101205.88
2023-04-25T00:53:28.948Z,101215.34
2023-04-25T00:55:56.255Z,101216.09
2023-04-25T00:58:23.335Z,101215.94
2023-04-25T01:00:51.570Z,101221.16
2023-04-25T01:03:20.841Z,101219.28
2023-04-25T01:05:49.069Z,101218.31
2023-04-25T01:08:16.060Z,101219.13
2023-04-25T01:10:42.626Z,101221.72
2023-04-25T01:13:09.295Z,101217.28
2023-04-25T01:15:36.907Z,101221.69
2023-04-25T01:18:04.740Z,101217.28
2023-04-25T01:20:33.106Z,101224.28
2023-04-25T01:22:59.851Z,101221.69
2023-04-25T01:25:26.414Z,101229.59
2023-04-25T01:27:53.140Z,101218.25
2023-04-25T01:30:19.777Z,101228.00
2023-04-25T01:32:46.602Z,101228.84
2023-04-25T01:35:13.271Z,101230.63
2023-04-25T01:37:41.131Z,101237.63
2023-04-25T01:40:09.154Z,101233.25
2023-04-25T01:42:37.018Z,101242.78
2023-04-25T01:45:04.060Z,101238.31
2023-04-25T01:47:32.480Z,101234.72
2023-04-25T01:49:59.691Z,101237.22
2023-04-25T01:52:26.254Z,101240.63
2023-04-25T01:54:54.309Z,101244.91
2023-04-25T01:57:21.098Z,101247.53
2023-04-25T01:59:47.795Z,101248.47
2023-04-25T02:02:14.350Z,101249.34
2023-04-25T02:04:41.078Z,101246.72
2023-04-25T02:07:07.838Z,101245.94
2023-04-25T02:09:34.366Z,101248.53
2023-04-25T02:12:01.436Z,101249.44
2023-04-25T02:14:27.991Z,101247.66
2023-04-25T02:16:55.213Z,101244.22
2023-04-25T02:19:21.832Z,101249.44
2023-04-25T02:21:48.359Z,101248.59
2023-04-25T02:24:14.842Z,101246.84
2023-04-25T02:26:41.354Z,101243.38
2023-04-25T02:29:08.152Z,101245.19
2023-04-25T02:31:34.690Z,101253.03
2023-04-25T02:34:01.210Z,101255.72
2023-04-25T02:36:27.800Z,101252.28
2023-04-25T02:38:54.453Z,101250.50
2023-04-25T02:41:21.780Z,101250.44
2023-04-25T02:43:48.844Z,101251.31
2023-04-25T02:46:19.047Z,101248.84
2023-04-25T02:48:47.426Z,101255.81
2023-04-25T02:51:14.024Z,101248.75
2023-04-25T02:53:40.564Z,101244.41
2023-04-25T02:56:07.220Z,101247.88
2023-04-25T02:58:33.763Z,101257.50
2023-04-25T03:01:00.447Z,101247.91
2023-04-25T03:03:27.136Z,101249.56
2023-04-25T03:05:53.831Z,101253.06
2023-04-25T03:08:20.432Z,101246.94
2023-04-25T03:10:47.079Z,101248.63
2023-04-25T03:13:13.560Z,101244.19
2023-04-25T03:15:40.042Z,101246.72
2023-04-25T03:18:06.812Z,101247.66
2023-04-25T03:20:33.340Z,101251.13
2023-04-25T03:22:59.913Z,101259.00
2023-04-25T03:25:26.561Z,101255.47
2023-04-25T03:27:53.092Z,101253.63
2023-04-25T03:30:19.783Z,101260.53
2023-04-25T03:32:46.399Z,101245.63
2023-04-25T03:35:12.944Z,101252.63
2023-04-25T03:37:41.487Z,101247.41
2023-04-25T03:40:08.641Z,101252.56
2023-04-25T03:42:35.196Z,101258.75
2023-04-25T03:45:01.796Z,101263.13
2023-04-25T03:47:28.357Z,101268.38
2023-04-25T03:49:54.892Z,101269.25
2023-04-25T03:52:21.398Z,101279.72
2023-04-25T03:54:47.899Z,101292.91
2023-04-25T03:57:14.566Z,101290.94
2023-04-25T03:59:41.090Z,101299.41
2023-04-25T04:02:07.658Z,101301.31
2023-04-25T04:04:34.500Z,101301.56
2023-04-25T04:07:01.254Z,101290.38
2023-04-25T04:09:28.558Z,101294.78
2023-04-25T04:11:55.086Z,101307.03
2023-04-25T04:14:21.873Z,101302.66
2023-04-25T04:16:48.459Z,101290.41
2023-04-25T04:19:15.436Z,101300.03
2023-04-25T04:21:41.924Z,101288.72
2023-04-25T04:24:08.590Z,101293.09
2023-04-25T04:26:35.482Z,101294.91
2023-04-25T04:29:02.369Z,101294.91
2023-04-25T04:31:28.912Z,101304.53
2023-04-25T04:33:55.588Z,101300.16
2023-04-25T04:36:22.986Z,101301.97
2023-04-25T04:38:50.035Z,101303.75
2023-04-25T04:41:17.196Z,101303.81
2023-04-25T04:43:44.350Z,101305.59
2023-04-25T04:46:11.478Z,101308.31
2023-04-25T04:48:38.329Z,101310.06
2023-04-25T04:51:04.908Z,101317.13
2023-04-25T04:53:31.428Z,101313.69
2023-04-25T04:55:57.988Z,101319.00
2023-04-25T04:58:24.508Z,101320.81
2023-04-25T05:00:51.403Z,101322.63
2023-04-25T05:03:18.093Z,101320.97
2023-04-25T05:05:44.860Z,101329.66
2023-04-25T05:08:11.361Z,101333.19
2023-04-25T05:10:37.943Z,101335.81
2023-04-25T05:13:04.433Z,101341.00
2023-04-25T05:15:30.948Z,101345.31
2023-04-25T05:17:57.714Z,101345.22
2023-04-25T05:20:24.356Z,101349.47
2023-04-25T05:22:50.870Z,101357.22
2023-04-25T05:25:17.490Z,101358.81
2023-04-25T05:27:44.048Z,101371.72
2023-04-25T05:30:11.009Z,101371.56
2023-04-25T05:32:37.894Z,101375.69
2023-04-25T05:35:04.830Z,101378.06
2023-04-25T05:37:32.184Z,101382.25
2023-04-25T05:39:58.673Z,101388.25
2023-04-25T05:42:25.155Z,101392.41
2023-04-25T05:44:51.757Z,101389.69
2023-04-25T05:47:18.271Z,101388.69
2023-04-25T05:49:44.811Z,101397.38
2023-04-25T05:52:11.309Z,101395.34
2023-04-25T05:54:37.830Z,101405.81
2023-04-25T05:57:04.346Z,101403.03
2023-04-25T05:59:30.886Z,101408.16
2023-04-25T06:01:57.480Z,101410.78
2023-04-25T06:04:24.234Z,101407.09
2023-04-25T06:06:51.180Z,101409.59
2023-04-25T06:09:17.721Z,101415.59
2023-04-25T06:11:44.267Z,101423.38
2023-04-25T06:14:10.972Z,101424.38
2023-04-25T06:16:37.723Z,101424.09
2023-04-25T06:19:04.317Z,101438.94
2023-04-25T06:21:30.797Z,101438.66
2023-04-25T06:23:57.292Z,101450.09
2023-04-25T06:26:23.858Z,101452.47
2023-04-25T06:28:50.527Z,101455.69
2023-04-25T06:31:17.164Z,101450.91
2023-04-25T06:33:43.903Z,101451.59
2023-04-25T06:36:10.830Z,101449.22
2023-04-25T06:38:37.412Z,101450.00
2023-04-25T06:41:04.035Z,101456.72
2023-04-25T06:43:34.089Z,101456.56
2023-04-25T06:46:01.628Z,101455.44
2023-04-25T06:48:28.572Z,101463.94
2023-04-25T06:50:55.378Z,101462.00
2023-04-25T06:53:21.970Z,101456.47
2023-04-25T06:55:48.519Z,101458.78
2023-04-25T06:58:15.389Z,101465.47
2023-04-25T07:00:41.945Z,101459.66
2023-04-25T07:03:08.545Z,101463.31
2023-04-25T07:05:35.199Z,101463.91
2023-04-25T07:08:01.797Z,101466.69
2023-04-25T07:10:28.715Z,101467.22
2023-04-25T07:12:55.296Z,101472.06
2023-04-25T07:15:21.872Z,101465.16
2023-04-25T07:17:48.376Z,101475.75
2023-04-25T07:20:14.984Z,101471.25
2023-04-25T07:22:41.498Z,101470.13
2023-04-25T07:25:09.564Z,101463.22
2023-04-25T07:27:36.217Z,101472.53
2023-04-25T07:30:04.528Z,101460.94
2023-04-25T07:32:31.305Z,101467.03
2023-04-25T07:34:57.817Z,101472.72
2023-04-25T07:37:24.355Z,101484.03
2023-04-25T07:39:50.865Z,101489.47
2023-04-25T07:42:17.388Z,101489.56
2023-04-25T07:44:43.987Z,101501.72
2023-04-25T07:47:11.250Z,101502.22
2023-04-25T07:49:38.451Z,101500.38
2023-04-25T07:52:07.044Z,101488.22
2023-04-25T07:54:33.638Z,101491.22
2023-04-25T07:57:00.760Z,101495.13
2023-04-25T07:59:29.764Z,101501.94
2023-04-25T08:01:58.292Z,101503.13
2023-04-25T08:04:25.190Z,101512.50
2023-04-25T08:06:51.819Z,101516.31
2023-04-25T08:09:18.340Z,101517.56
2023-04-25T08:11:44.892Z,101516.94
2023-04-25T08:14:12.487Z,101526.47
2023-04-25T08:16:39.025Z,101529.41
2023-04-25T08:19:06.026Z,101532.81
2023-04-25T08:21:33.940Z,101537.88
2023-04-25T08:24:00.871Z,101540.34
2023-04-25T08:26:27.487Z,101535.50
2023-04-25T08:28:54.148Z,101550.63
2023-04-25T08:31:20.765Z,101552.19
2023-04-25T08:33:47.661Z,101563.22
2023-04-25T08:36:17.315Z,101573.44
2023-04-25T08:38:48.632Z,101571.19
2023-04-25T08:41:16.318Z,101585.34
2023-04-25T08:43:44.940Z,101579.19
2023-04-25T08:46:13.192Z,101586.34
2023-04-25T08:48:41.785Z,101589.69
2023-04-25T08:53:38.947Z,101586.63
2023-04-25T08:56:07.140Z,101590.47
2023-04-25T08:58:33.929Z,101595.41
2023-04-25T09:01:01.131Z,101600.66
2023-04-25T09:03:28.180Z,101599.25
2023-04-25T09:05:55.093Z,101605.31
2023-04-25T09:08:21.691Z,101609.78
2023-04-25T09:10:48.231Z,101607.03
2023-04-25T09:13:18.999Z,101617.88
2023-04-25T09:15:53.749Z,101611.97
2023-04-25T09:18:29.800Z,101609.28
2023-04-25T09:21:12.969Z,101617.72
2023-04-25T09:23:51.247Z,101623.78
2023-04-25T09:26:22.367Z,101620.69
2023-04-25T09:28:49.027Z,101627.97
2023-04-25T09:31:27.671Z,101627.84
2023-04-25T09:34:01.933Z,101624.97
2023-04-25T09:36:29.273Z,101624.72
2023-04-25T09:38:56.174Z,101629.53
2023-04-25T09:41:26.420Z,101627.59
2023-04-25T09:43:52.931Z,101629.06
2023-04-25T09:46:22.263Z,101633.28
2023-04-25T09:48:51.087Z,101644.41
2023-04-25T09:51:17.789Z,101642.88
2023-04-25T09:53:52.186Z,101640.16
2023-04-25T09:56:21.142Z,101648.31
2023-04-25T09:58:48.575Z,101644.00
2023-04-25T10:01:15.832Z,101656.66
2023-04-25T10:03:43.477Z,101663.91
2023-04-25T10:06:13.705Z,101654.00
2023-04-25T10:08:40.297Z,101660.00
2023-04-25T10:11:09.172Z,101669.13
2023-04-25T10:13:36.773Z,101669.44
2023-04-25T10:16:04.977Z,101665.69
2023-04-25T10:18:33.829Z,101669.16
2023-04-25T10:21:05.954Z,101663.22
2023-04-25T10:23:33.313Z,101674.13
2023-04-25T10:25:59.878Z,101666.69
2023-04-25T10:28:26.675Z,101673.03
2023-04-25T10:31:01.288Z,101676.81
2023-04-25T10:33:43.051Z,101677.97
2023-04-25T10:36:13.104Z,101667.75
2023-04-25T10:38:40.358Z,101672.78
2023-04-25T10:41:11.832Z,101677.53
2023-04-25T10:43:39.648Z,101674.56
2023-04-25T10:46:28.418Z,101674.50
2023-04-25T10:48:59.555Z,101677.03
2023-04-25T10:51:30.800Z,101673.75
2023-04-25T10:54:05.051Z,101670.09
2023-04-25T10:56:41.505Z,101670.13
2023-04-25T10:59:08.024Z,101672.81
2023-04-25T11:01:45.589Z,101676.34
2023-04-25T11:04:22.554Z,101677.53
2023-04-25T11:07:06.481Z,101685.09
2023-04-25T11:09:38.944Z,101681.09
2023-04-25T11:12:06.087Z,101695.94
2023-04-25T11:14:32.807Z,101688.03
2023-04-25T11:17:01.035Z,101682.19
2023-04-25T11:19:29.295Z,101691.22
2023-04-25T11:21:56.984Z,101695.63
2023-04-25T11:24:30.719Z,101710.72
2023-04-25T11:26:58.989Z,101713.59
2023-04-25T11:29:29.802Z,101710.88
2023-04-25T11:31:58.988Z,101702.31
2023-04-25T11:34:26.797Z,101706.19
2023-04-25T11:36:54.318Z,101700.38
2023-04-25T11:39:21.122Z,101698.19
2023-04-25T11:41:48.309Z,101708.50
2023-04-25T11:44:18.838Z,101717.16
2023-04-25T11:46:45.743Z,101711.22
2023-04-25T11:49:12.888Z,101711.44
2023-04-25T11:51:42.867Z,101714.88
2023-04-25T11:54:09.435Z,101724.94
2023-04-25T11:56:36.113Z,101722.41
2023-04-25T11:59:04.891Z,101724.50
2023-04-25T12:01:38.961Z,101716.75
2023-04-25T12:04:16.253Z,101727.59
2023-04-25T12:06:44.266Z,101726.06
2023-04-25T12:09:14.857Z,101724.00
2023-04-25T12:11:49.419Z,101726.69
2023-04-25T12:14:25.248Z,101740.41
2023-04-25T12:16:54.985Z,101733.47
2023-04-25T12:19:21.954Z,101733.31
2023-04-25T12:21:58.020Z,101741.03
2023-04-25T12:24:28.236Z,101738.88
2023-04-25T12:27:06.050Z,101729.94
2023-04-25T12:29:41.876Z,101735.31
2023-04-25T12:32:14.856Z,101734.63
2023-04-25T12:34:41.633Z,101733.44
2023-04-25T12:37:08.169Z,101747.75
2023-04-25T12:39:34.704Z,101739.63
2023-04-25T12:42:01.958Z,101756.03
2023-04-25T12:44:28.538Z,101750.13
2023-04-25T12:46:57.101Z,101756.38
2023-04-25T12:49:24.328Z,101752.25
2023-04-25T12:51:52.508Z,101751.16
2023-04-25T12:54:19.048Z,101743.91
2023-04-25T12:56:45.569Z,101752.72
2023-04-25T12:59:12.142Z,101752.88
2023-04-25T13:01:39.595Z,101758.25
2023-04-25T13:04:06.734Z,101755.69
2023-04-25T13:06:33.439Z,101758.50
2023-04-25T13:09:00.010Z,101761.13
2023-04-25T13:11:26.594Z,101761.00
2023-04-25T13:13:53.514Z,101757.06
2023-04-25T13:16:21.929Z,101755.25
2023-04-25T13:18:49.069Z,101762.59
2023-04-25T13:21:15.624Z,101769.28
2023-04-25T13:23:43.812Z,101762.13
2023-04-25T13:26:10.452Z,101766.03
2023-04-25T13:28:37.005Z,101776.91
2023-04-25T13:31:03.574Z,101773.53
2023-04-25T13:33:30.110Z,101772.47
2023-04-25T13:35:58.460Z,101785.25
2023-04-25T13:38:26.659Z,101779.19
2023-04-25T13:40:53.749Z,101774.84
2023-04-25T13:43:22.783Z,101771.66
2023-04-25T13:45:50.514Z,101772.63
2023-04-25T13:48:17.253Z,101775.66
2023-04-25T13:50:43.831Z,101778.63
2023-04-25T13:53:10.505Z,101787.94
2023-04-25T13:55:37.886Z,101787.66
2023-04-25T13:58:09.087Z,101784.44
2023-04-25T14:00:39.959Z,101795.88
2023-04-25T14:03:09.067Z,101796.28
2023-04-25T14:05:40.105Z,101791.94
2023-04-25T14:08:08.122Z,101793.28
2023-04-25T14:10:35.666Z,101789.56
2023-04-25T14:13:04.190Z,101790.22
2023-04-25T14:15:34.250Z,101783.03
2023-04-25T14:18:01.788Z,101794.53
2023-04-25T14:20:28.499Z,101787.81
2023-04-25T14:22:56.998Z,101771.00
2023-04-25T14:25:24.228Z,101774.44
2023-04-25T14:27:51.196Z,101780.72
2023-04-25T14:30:19.494Z,101783.41
2023-04-25T14:32:46.661Z,101791.47
2023-04-25T14:35:13.728Z,101786.28
2023-04-25T14:37:40.464Z,101795.41
2023-04-25T14:40:09.744Z,101794.94
2023-04-25T14:42:36.470Z,101793.59
2023-04-25T14:45:04.800Z,101791.66
2023-04-25T14:47:31.381Z,101798.09
2023-04-25T14:49:57.968Z,101804.94
2023-04-25T14:52:24.958Z,101807.97
2023-04-25T14:54:51.988Z,101801.22
2023-04-25T14:57:18.494Z,101795.06
2023-04-25T14:59:45.051Z,101797.63
2023-04-25T15:02:11.793Z,101801.56
2023-04-25T15:04:38.530Z,101801.28
2023-04-25T15:07:05.700Z,101798.94
2023-04-25T15:09:32.293Z,101796.34
2023-04-25T15:11:59.353Z,101800.56
2023-04-25T15:14:25.864Z,101792.16
2023-04-25T15:16:52.576Z,101801.16
2023-04-25T15:19:19.186Z,101813.50
2023-04-25T15:21:45.756Z,101814.75
2023-04-25T15:24:12.277Z,101827.38
2023-04-25T15:26:38.796Z,101816.28
2023-04-25T15:29:06.823Z,101811.25
2023-04-25T15:31:33.531Z,101816.94
2023-04-25T15:34:00.119Z,101821.69
2023-04-25T15:36:26.698Z,101809.91
2023-04-25T15:38:53.408Z,101818.66
2023-04-25T15:41:19.948Z,101827.19
2023-04-25T15:43:49.014Z,101831.19
2023-04-25T15:46:16.118Z,101836.84
2023-04-25T15:48:42.799Z,101837.84
2023-04-25T15:51:10.561Z,101837.47
2023-04-25T15:53:37.399Z,101849.53
2023-04-25T15:56:04.654Z,101846.06
2023-04-25T15:58:31.191Z,101837.50
2023-04-25T16:00:57.840Z,101847.88
2023-04-25T16:03:24.547Z,101846.69
2023-04-25T16:05:51.320Z,101840.59
2023-04-25T16:08:17.871Z,101844.66
2023-04-25T16:10:44.434Z,101864.84
2023-04-25T16:13:11.285Z,101855.00
2023-04-25T16:15:38.049Z,101857.22
2023-04-25T16:18:04.796Z,101863.31
2023-04-25T16:20:31.379Z,101859.59
2023-04-25T16:22:57.945Z,101856.75
2023-04-25T16:25:24.529Z,101855.03
2023-04-25T16:27:52.001Z,101849.06
2023-04-25T16:30:18.555Z,101855.81
2023-04-25T16:32:45.711Z,101844.06
2023-04-25T16:35:12.426Z,101855.06
2023-04-25T16:37:38.961Z,101859.75
2023-04-25T16:40:08.948Z,101866.09
2023-04-25T16:42:36.340Z,101867.75
2023-04-25T16:45:05.005Z,101862.91
2023-04-25T16:47:32.315Z,101863.38
2023-04-25T16:50:00.583Z,101866.16
2023-04-25T16:52:27.423Z,101874.44
2023-04-25T16:54:53.996Z,101875.72
2023-04-25T16:57:21.170Z,101872.81
2023-04-25T16:59:47.943Z,101885.97
2023-04-25T17:02:14.774Z,101885.88
2023-04-25T17:04:41.787Z,101892.84
2023-04-25T17:07:08.984Z,101883.50
2023-04-25T17:09:36.325Z,101884.97
2023-04-25T17:12:04.273Z,101890.25
2023-04-25T17:14:32.976Z,101881.97
2023-04-25T17:16:59.616Z,101877.44
2023-04-25T17:19:26.296Z,101883.66
2023-04-25T17:21:52.915Z,101871.78
2023-04-25T17:24:21.802Z,101868.06
2023-04-25T17:26:48.960Z,101877.81
2023-04-25T17:29:15.859Z,101881.84
2023-04-25T17:31:42.647Z,101880.63
2023-04-25T17:34:09.889Z,101884.63
2023-04-25T17:36:36.476Z,101882.66
2023-04-25T17:39:06.264Z,101883.97
2023-04-25T17:41:32.859Z,101891.22
2023-04-25T17:43:59.454Z,101888.69
2023-04-25T17:46:27.446Z,101895.66
2023-04-25T17:48:54.459Z,101900.16
2023-04-25T17:51:21.355Z,101902.53
2023-04-25T17:53:48.019Z,101916.75
2023-04-25T17:56:25.977Z,101913.31
2023-04-25T17:58:54.221Z,101918.13
2023-04-25T18:01:21.367Z,101915.94
2023-04-25T18:03:49.977Z,101921.38
2023-04-25T18:06:17.871Z,101919.78
2023-04-25T18:08:44.856Z,101923.03
2023-04-25T18:11:12.195Z,101919.31
2023-04-25T18:13:39.402Z,101916.06
2023-04-25T18:16:06.653Z,101924.19
2023-04-25T18:18:35.680Z,101916.97
2023-04-25T18:21:05.116Z,101916.47
2023-04-25T18:23:35.466Z,101919.88
2023-04-25T18:26:02.798Z,101922.75
2023-04-25T18:28:29.618Z,101914.38
2023-04-25T18:30:56.784Z,101911.78
2023-04-25T18:33:23.605Z,101915.13
2023-04-25T18:35:58.671Z,101920.50
2023-04-25T18:41:04.424Z,101925.00
2023-04-25T18:43:37.040Z,101926.84
2023-04-25T18:46:05.744Z,101928.94
2023-04-25T18:48:32.402Z,101928.28
2023-04-25T18:50:59.000Z,101930.09
2023-04-25T18:53:25.544Z,101930.16
2023-04-25T18:55:52.092Z,101935.53
2023-04-25T18:58:18.640Z,101938.25
2023-04-25T19:00:45.270Z,101921.66
2023-04-25T19:03:12.615Z,101926.06
2023-04-25T19:05:39.288Z,101932.22
2023-04-25T19:08:06.054Z,101933.19
2023-04-25T19:10:32.633Z,101931.66
2023-04-25T19:12:59.141Z,101937.03
2023-04-25T19:15:26.021Z,101934.44
2023-04-25T19:17:52.702Z,101935.28
2023-04-25T19:20:20.807Z,101938.00
2023-04-25T19:22:47.453Z,101949.53
2023-04-25T19:25:13.949Z,101954.88
2023-04-25T19:27:40.498Z,101953.97
2023-04-25T19:30:10.753Z,101959.25
2023-04-25T19:32:38.342Z,101956.69
2023-04-25T19:35:05.322Z,101964.59
2023-04-25T19:37:32.183Z,101971.72
2023-04-25T19:39:58.692Z,101969.94
2023-04-25T19:42:25.992Z,101968.25
2023-04-25T19:44:52.648Z,101972.59
2023-04-25T19:47:19.199Z,101971.72
2023-04-25T19:49:45.797Z,101975.31
2023-04-25T19:52:14.933Z,101977.97
2023-04-25T19:54:45.381Z,101971.03
2023-04-25T19:57:12.712Z,101977.25
2023-04-25T19:59:39.882Z,101976.38
2023-04-25T20:02:09.151Z,101975.53
2023-04-25T20:04:35.886Z,101972.94
2023-04-25T20:07:02.465Z,101976.44
2023-04-25T20:09:29.013Z,101968.56
2023-04-25T20:11:55.625Z,101977.38
2023-04-25T20:14:22.240Z,101977.38
2023-04-25T20:16:48.897Z,101974.81
2023-04-25T20:19:15.597Z,101975.75
2023-04-25T20:21:42.112Z,101981.03
2023-04-25T20:24:08.698Z,101973.22
2023-04-25T20:26:35.635Z,101975.00
2023-04-25T20:29:02.204Z,101976.75
2023-04-25T20:31:29.789Z,101969.78
2023-04-25T20:33:56.368Z,101976.84
2023-04-25T20:36:22.918Z,101976.06
2023-04-25T20:38:49.545Z,101972.53
2023-04-25T20:41:16.207Z,101969.94
2023-04-25T20:43:42.788Z,101975.22
2023-04-25T20:46:10.330Z,101973.53
2023-04-25T20:48:37.034Z,101970.09
2023-04-25T20:51:04.086Z,101974.50
2023-04-25T20:53:30.630Z,101975.41
2023-04-25T20:55:57.459Z,101983.34
2023-04-25T20:58:24.045Z,101968.47
2023-04-25T21:00:51.319Z,101976.41
2023-04-25T21:03:18.110Z,101981.66
2023-04-25T21:05:44.864Z,101970.25
2023-04-25T21:08:11.424Z,101977.34
2023-04-25T21:10:38.054Z,101973.81
2023-04-25T21:13:04.689Z,101975.53
2023-04-25T21:15:31.288Z,101982.59
2023-04-25T21:17:57.873Z,101972.91
2023-04-25T21:20:24.478Z,101973.81
2023-04-25T21:22:53.799Z,101975.56
2023-04-25T21:25:29.344Z,101978.13
2023-04-25T21:27:56.279Z,101980.72
2023-04-25T21:30:24.418Z,101973.72
2023-04-25T21:32:51.993Z,101978.97
2023-04-25T21:35:20.411Z,101979.00
2023-04-25T21:37:47.308Z,101980.75
2023-04-25T21:40:14.416Z,101973.78
2023-04-25T21:42:42.330Z,101983.47
2023-04-25T21:45:10.114Z,101977.34
2023-04-25T21:47:37.004Z,101985.19
2023-04-25T21:50:04.180Z,101988.69
2023-04-25T21:52:31.407Z,101991.34
2023-04-25T21:54:57.906Z,101999.19
2023-04-25T21:57:24.424Z,101998.25
2023-04-25T21:59:50.952Z,101993.06
2023-04-25T22:02:17.568Z,101988.66
2023-04-25T22:04:47.374Z,101991.31
2023-04-25T22:07:14.811Z,101995.63
2023-04-25T22:09:53.739Z,101993.84
2023-04-25T22:12:21.473Z,101993.78
2023-04-25T22:14:48.944Z,101992.03
2023-04-25T22:17:15.577Z,101990.34
2023-04-25T22:19:43.188Z,101991.25
2023-04-25T22:22:09.720Z,101995.69
2023-04-25T22:24:36.244Z,101993.97
2023-04-25T22:27:02.774Z,101995.78
2023-04-25T22:29:29.358Z,102005.47
2023-04-25T22:31:56.024Z,101998.50
2023-04-25T22:34:22.663Z,102001.19
2023-04-25T22:36:49.525Z,102003.81
2023-04-25T22:39:16.996Z,102005.59
2023-04-25T22:41:43.517Z,102001.28
2023-04-25T22:44:11.194Z,102007.44
2023-04-25T22:46:37.834Z,102006.59
2023-04-25T22:49:04.864Z,102008.38
2023-04-25T22:51:31.656Z,102003.13
2023-04-25T22:53:58.162Z,102007.53
2023-04-25T22:56:24.797Z,101997.06
2023-04-25T22:58:51.729Z,102004.94
2023-04-25T23:01:19.431Z,102007.59
2023-04-25T23:03:46.378Z,102007.63
2023-04-25T23:06:13.681Z,102005.00
2023-04-25T23:08:41.786Z,102000.66
2023-04-25T23:11:08.645Z,102002.41
2023-04-25T23:13:37.054Z,102001.56
2023-04-25T23:16:10.881Z,102002.44
2023-04-25T23:18:38.146Z,101998.94
2023-04-25T23:24:58.166Z,101991.97
2023-04-25T23:27:24.705Z,101992.84
2023-04-25T23:29:54.814Z,101997.22
2023-04-25T23:32:22.276Z,101990.25
2023-04-25T23:34:49.424Z,101999.00
2023-04-25T23:37:16.109Z,101986.78
2023-04-25T23:39:48.757Z,101998.13
2023-04-25T23:42:15.304Z,101991.13
2023-04-25T23:44:42.797Z,101999.88
2023-04-25T23:47:09.374Z,101991.16
2023-04-25T23:49:36.172Z,101995.50
2023-04-25T23:52:03.798Z,101997.28
2023-04-25T23:54:30.297Z,101991.16
2023-04-25T23:56:56.870Z,101994.66
2023-04-25T23:59:23.366Z,101994.66
